sensor_id;sensor_type;location;lat;lon;timestamp;temperature;humidity
75489;HTU21D;64069;46.396;48.102;2023-03-24T00:01:13;5.52;76.11
75489;HTU21D;64069;46.396;48.102;2023-03-24T00:03:39;5.49;76.25
75489;HTU21D;64069;46.396;48.102;2023-03-24T00:06:06;5.50;76.54
75489;HTU21D;64069;46.396;48.102;2023-03-24T00:08:35;5.54;76.82
75489;HTU21D;64069;46.396;48.102;2023-03-24T00:11:04;5.53;77.04
75489;HTU21D;64069;46.396;48.102;2023-03-24T00:13:32;5.48;77.27
75489;HTU21D;64069;46.396;48.102;2023-03-24T00:16:03;5.47;77.63
75489;HTU21D;64069;46.396;48.102;2023-03-24T00:18:29;5.41;77.36
75489;HTU21D;64069;46.396;48.102;2023-03-24T00:20:56;5.39;77.44
75489;HTU21D;64069;46.396;48.102;2023-03-24T00:23:27;5.36;77.52
75489;HTU21D;64069;46.396;48.102;2023-03-24T00:26:11;5.36;77.73
75489;HTU21D;64069;46.396;48.102;2023-03-24T00:28:46;5.38;77.64
75489;HTU21D;64069;46.396;48.102;2023-03-24T00:31:15;5.38;77.57
75489;HTU21D;64069;46.396;48.102;2023-03-24T00:33:43;5.42;77.66
75489;HTU21D;64069;46.396;48.102;2023-03-24T00:36:10;5.49;77.70
75489;HTU21D;64069;46.396;48.102;2023-03-24T00:38:37;5.56;77.72
75489;HTU21D;64069;46.396;48.102;2023-03-24T00:41:08;5.65;77.89
75489;HTU21D;64069;46.396;48.102;2023-03-24T00:43:35;5.69;78.03
75489;HTU21D;64069;46.396;48.102;2023-03-24T00:46:07;5.71;78.39
75489;HTU21D;64069;46.396;48.102;2023-03-24T00:48:36;5.74;78.29
75489;HTU21D;64069;46.396;48.102;2023-03-24T00:51:04;5.76;78.27
75489;HTU21D;64069;46.396;48.102;2023-03-24T00:53:36;5.80;78.20
75489;HTU21D;64069;46.396;48.102;2023-03-24T00:56:02;5.82;78.49
75489;HTU21D;64069;46.396;48.102;2023-03-24T00:58:29;5.83;78.59
75489;HTU21D;64069;46.396;48.102;2023-03-24T01:00:59;5.82;78.77
75489;HTU21D;64069;46.396;48.102;2023-03-24T01:03:25;5.84;78.85
75489;HTU21D;64069;46.396;48.102;2023-03-24T01:05:58;5.86;78.87
75489;HTU21D;64069;46.396;48.102;2023-03-24T01:08:26;5.91;78.82
75489;HTU21D;64069;46.396;48.102;2023-03-24T01:10:53;5.92;78.88
75489;HTU21D;64069;46.396;48.102;2023-03-24T01:13:27;5.92;79.06
75489;HTU21D;64069;46.396;48.102;2023-03-24T01:15:54;5.85;79.06
75489;HTU21D;64069;46.396;48.102;2023-03-24T01:18:20;5.83;79.24
75489;HTU21D;64069;46.396;48.102;2023-03-24T01:20:50;5.77;79.36
75489;HTU21D;64069;46.396;48.102;2023-03-24T01:23:22;5.75;79.45
75489;HTU21D;64069;46.396;48.102;2023-03-24T01:25:49;5.77;79.42
75489;HTU21D;64069;46.396;48.102;2023-03-24T01:28:20;5.77;79.48
75489;HTU21D;64069;46.396;48.102;2023-03-24T01:30:53;5.75;79.60
75489;HTU21D;64069;46.396;48.102;2023-03-24T01:33:20;5.71;79.65
75489;HTU21D;64069;46.396;48.102;2023-03-24T01:35:46;5.66;79.75
75489;HTU21D;64069;46.396;48.102;2023-03-24T01:38:13;5.64;79.81
75489;HTU21D;64069;46.396;48.102;2023-03-24T01:40:42;5.63;79.86
75489;HTU21D;64069;46.396;48.102;2023-03-24T01:43:29;5.59;80.01
75489;HTU21D;64069;46.396;48.102;2023-03-24T01:46:20;5.57;79.82
75489;HTU21D;64069;46.396;48.102;2023-03-24T01:48:50;5.57;79.73
75489;HTU21D;64069;46.396;48.102;2023-03-24T01:53:52;5.53;79.82
75489;HTU21D;64069;46.396;48.102;2023-03-24T01:56:19;5.50;79.77
75489;HTU21D;64069;46.396;48.102;2023-03-24T01:58:55;5.48;79.95
75489;HTU21D;64069;46.396;48.102;2023-03-24T02:01:30;5.41;79.85
75489;HTU21D;64069;46.396;48.102;2023-03-24T02:04:25;5.35;79.88
75489;HTU21D;64069;46.396;48.102;2023-03-24T02:07:08;5.27;80.07
75489;HTU21D;64069;46.396;48.102;2023-03-24T02:09:34;5.23;80.12
75489;HTU21D;64069;46.396;48.102;2023-03-24T02:12:00;5.18;80.24
75489;HTU21D;64069;46.396;48.102;2023-03-24T02:14:29;5.12;80.33
75489;HTU21D;64069;46.396;48.102;2023-03-24T02:20:00;5.08;80.36
75489;HTU21D;64069;46.396;48.102;2023-03-24T02:36:05;5.46;79.91
75489;HTU21D;64069;46.396;48.102;2023-03-24T02:50:13;5.67;80.37
75489;HTU21D;64069;46.396;48.102;2023-03-24T02:52:59;5.68;80.34
75489;HTU21D;64069;46.396;48.102;2023-03-24T02:56:04;5.69;80.32
75489;HTU21D;64069;46.396;48.102;2023-03-24T02:58:38;5.76;80.39
75489;HTU21D;64069;46.396;48.102;2023-03-24T03:01:24;5.79;80.46
75489;HTU21D;64069;46.396;48.102;2023-03-24T03:04:35;5.84;80.37
75489;HTU21D;64069;46.396;48.102;2023-03-24T03:07:06;5.90;80.40
75489;HTU21D;64069;46.396;48.102;2023-03-24T03:09:51;5.94;80.56
75489;HTU21D;64069;46.396;48.102;2023-03-24T03:12:20;6.00;80.40
75489;HTU21D;64069;46.396;48.102;2023-03-24T03:14:50;6.04;80.32
75489;HTU21D;64069;46.396;48.102;2023-03-24T03:17:21;6.09;80.28
75489;HTU21D;64069;46.396;48.102;2023-03-24T03:19:54;6.13;80.28
75489;HTU21D;64069;46.396;48.102;2023-03-24T03:22:28;6.17;80.27
75489;HTU21D;64069;46.396;48.102;2023-03-24T03:24:56;6.24;80.21
75489;HTU21D;64069;46.396;48.102;2023-03-24T03:27:31;6.31;80.30
75489;HTU21D;64069;46.396;48.102;2023-03-24T03:32:40;6.50;80.17
75489;HTU21D;64069;46.396;48.102;2023-03-24T03:35:14;6.58;80.14
75489;HTU21D;64069;46.396;48.102;2023-03-24T03:40:22;6.76;80.30
75489;HTU21D;64069;46.396;48.102;2023-03-24T03:42:55;6.79;80.26
75489;HTU21D;64069;46.396;48.102;2023-03-24T03:45:22;6.80;80.42
75489;HTU21D;64069;46.396;48.102;2023-03-24T03:47:48;6.80;80.61
75489;HTU21D;64069;46.396;48.102;2023-03-24T03:50:15;6.81;80.84
75489;HTU21D;64069;46.396;48.102;2023-03-24T03:52:41;6.83;80.94
75489;HTU21D;64069;46.396;48.102;2023-03-24T03:55:10;6.90;80.91
75489;HTU21D;64069;46.396;48.102;2023-03-24T03:57:38;6.98;80.85
75489;HTU21D;64069;46.396;48.102;2023-03-24T04:00:23;7.11;80.68
75489;HTU21D;64069;46.396;48.102;2023-03-24T04:08:48;7.65;79.98
75489;HTU21D;64069;46.396;48.102;2023-03-24T04:11:53;7.81;79.61
75489;HTU21D;64069;46.396;48.102;2023-03-24T04:15:25;7.94;79.44
75489;HTU21D;64069;46.396;48.102;2023-03-24T04:21:25;8.51;78.64
75489;HTU21D;64069;46.396;48.102;2023-03-24T04:26:35;9.21;77.35
75489;HTU21D;64069;46.396;48.102;2023-03-24T04:32:25;9.23;77.10
75489;HTU21D;64069;46.396;48.102;2023-03-24T04:34:54;9.09;77.42
75489;HTU21D;64069;46.396;48.102;2023-03-24T04:37:46;9.33;77.33
75489;HTU21D;64069;46.396;48.102;2023-03-24T04:40:20;9.65;76.56
75489;HTU21D;64069;46.396;48.102;2023-03-24T04:42:51;9.68;76.27
75489;HTU21D;64069;46.396;48.102;2023-03-24T04:45:22;9.70;76.42
75489;HTU21D;64069;46.396;48.102;2023-03-24T04:48:09;9.91;76.21
75489;HTU21D;64069;46.396;48.102;2023-03-24T04:50:56;10.25;75.54
75489;HTU21D;64069;46.396;48.102;2023-03-24T04:53:26;10.29;75.09
75489;HTU21D;64069;46.396;48.102;2023-03-24T04:58:43;9.98;75.57
75489;HTU21D;64069;46.396;48.102;2023-03-24T05:01:09;9.91;75.84
75489;HTU21D;64069;46.396;48.102;2023-03-24T05:03:38;9.84;75.86
75489;HTU21D;64069;46.396;48.102;2023-03-24T05:06:04;9.78;75.99
75489;HTU21D;64069;46.396;48.102;2023-03-24T05:08:31;9.80;76.11
75489;HTU21D;64069;46.396;48.102;2023-03-24T05:10:57;9.98;75.92
75489;HTU21D;64069;46.396;48.102;2023-03-24T05:13:23;10.21;75.45
75489;HTU21D;64069;46.396;48.102;2023-03-24T05:15:53;10.55;74.86
75489;HTU21D;64069;46.396;48.102;2023-03-24T05:18:43;10.97;74.02
75489;HTU21D;64069;46.396;48.102;2023-03-24T05:21:09;11.36;73.38
75489;HTU21D;64069;46.396;48.102;2023-03-24T05:23:35;11.67;72.61
75489;HTU21D;64069;46.396;48.102;2023-03-24T05:26:01;11.69;72.54
75489;HTU21D;64069;46.396;48.102;2023-03-24T05:28:31;11.91;72.41
75489;HTU21D;64069;46.396;48.102;2023-03-24T05:30:57;12.26;71.91
75489;HTU21D;64069;46.396;48.102;2023-03-24T05:33:56;12.58;71.32
75489;HTU21D;64069;46.396;48.102;2023-03-24T05:36:23;13.01;70.69
75489;HTU21D;64069;46.396;48.102;2023-03-24T05:38:54;13.02;70.16
75489;HTU21D;64069;46.396;48.102;2023-03-24T05:41:22;12.97;70.37
75489;HTU21D;64069;46.396;48.102;2023-03-24T05:43:48;13.24;70.10
75489;HTU21D;64069;46.396;48.102;2023-03-24T05:46:15;13.76;69.23
75489;HTU21D;64069;46.396;48.102;2023-03-24T05:48:47;14.30;68.32
75489;HTU21D;64069;46.396;48.102;2023-03-24T05:51:15;14.75;67.52
75489;HTU21D;64069;46.396;48.102;2023-03-24T05:53:41;15.17;66.70
75489;HTU21D;64069;46.396;48.102;2023-03-24T05:56:08;15.54;65.98
75489;HTU21D;64069;46.396;48.102;2023-03-24T05:59:11;15.71;64.97
75489;HTU21D;64069;46.396;48.102;2023-03-24T06:01:58;15.72;64.00
75489;HTU21D;64069;46.396;48.102;2023-03-24T06:04:43;15.68;63.76
75489;HTU21D;64069;46.396;48.102;2023-03-24T06:07:19;15.95;63.15
75489;HTU21D;64069;46.396;48.102;2023-03-24T06:09:46;16.48;62.54
75489;HTU21D;64069;46.396;48.102;2023-03-24T06:12:16;17.29;61.41
75489;HTU21D;64069;46.396;48.102;2023-03-24T06:14:53;18.02;59.99
75489;HTU21D;64069;46.396;48.102;2023-03-24T06:17:20;18.48;58.85
75489;HTU21D;64069;46.396;48.102;2023-03-24T06:19:50;18.82;58.05
75489;HTU21D;64069;46.396;48.102;2023-03-24T06:22:24;18.80;57.64
75489;HTU21D;64069;46.396;48.102;2023-03-24T06:24:50;18.80;57.45
75489;HTU21D;64069;46.396;48.102;2023-03-24T06:27:18;18.88;56.29
75489;HTU21D;64069;46.396;48.102;2023-03-24T06:29:46;19.15;55.53
75489;HTU21D;64069;46.396;48.102;2023-03-24T06:32:14;19.25;53.17
75489;HTU21D;64069;46.396;48.102;2023-03-24T06:34:43;19.23;51.08
75489;HTU21D;64069;46.396;48.102;2023-03-24T06:37:25;19.31;48.44
75489;HTU21D;64069;46.396;48.102;2023-03-24T06:39:53;19.41;47.51
75489;HTU21D;64069;46.396;48.102;2023-03-24T06:42:22;19.62;46.72
75489;HTU21D;64069;46.396;48.102;2023-03-24T06:44:48;19.70;45.25
75489;HTU21D;64069;46.396;48.102;2023-03-24T06:47:15;19.61;44.55
75489;HTU21D;64069;46.396;48.102;2023-03-24T06:49:42;19.72;42.87
75489;HTU21D;64069;46.396;48.102;2023-03-24T06:52:08;19.81;42.12
75489;HTU21D;64069;46.396;48.102;2023-03-24T06:54:38;19.66;41.48
75489;HTU21D;64069;46.396;48.102;2023-03-24T06:57:04;19.65;41.11
75489;HTU21D;64069;46.396;48.102;2023-03-24T06:59:51;19.81;40.90
75489;HTU21D;64069;46.396;48.102;2023-03-24T07:02:18;19.99;40.01
75489;HTU21D;64069;46.396;48.102;2023-03-24T07:04:46;20.12;39.25
75489;HTU21D;64069;46.396;48.102;2023-03-24T07:07:29;20.20;38.76
75489;HTU21D;64069;46.396;48.102;2023-03-24T07:10:21;20.37;38.02
75489;HTU21D;64069;46.396;48.102;2023-03-24T07:12:48;20.45;37.59
75489;HTU21D;64069;46.396;48.102;2023-03-24T07:15:14;20.68;37.37
75489;HTU21D;64069;46.396;48.102;2023-03-24T07:17:41;20.71;36.85
75489;HTU21D;64069;46.396;48.102;2023-03-24T07:20:27;20.74;37.34
75489;HTU21D;64069;46.396;48.102;2023-03-24T07:23:06;20.86;36.90
75489;HTU21D;64069;46.396;48.102;2023-03-24T07:25:46;20.99;36.71
75489;HTU21D;64069;46.396;48.102;2023-03-24T07:28:38;21.14;36.82
75489;HTU21D;64069;46.396;48.102;2023-03-24T07:31:05;21.21;36.00
75489;HTU21D;64069;46.396;48.102;2023-03-24T07:33:36;21.19;35.76
75489;HTU21D;64069;46.396;48.102;2023-03-24T07:36:05;21.22;34.45
75489;HTU21D;64069;46.396;48.102;2023-03-24T07:38:34;21.16;34.19
75489;HTU21D;64069;46.396;48.102;2023-03-24T07:41:09;21.06;34.53
75489;HTU21D;64069;46.396;48.102;2023-03-24T07:43:39;20.93;34.21
75489;HTU21D;64069;46.396;48.102;2023-03-24T07:46:17;20.79;34.34
75489;HTU21D;64069;46.396;48.102;2023-03-24T07:48:44;20.70;33.89
75489;HTU21D;64069;46.396;48.102;2023-03-24T07:51:11;20.68;33.49
75489;HTU21D;64069;46.396;48.102;2023-03-24T07:53:58;20.78;33.12
75489;HTU21D;64069;46.396;48.102;2023-03-24T07:56:30;20.99;32.70
75489;HTU21D;64069;46.396;48.102;2023-03-24T07:58:59;21.21;31.66
75489;HTU21D;64069;46.396;48.102;2023-03-24T08:01:44;21.39;31.28
75489;HTU21D;64069;46.396;48.102;2023-03-24T08:04:12;21.15;30.21
75489;HTU21D;64069;46.396;48.102;2023-03-24T08:06:56;20.74;31.02
75489;HTU21D;64069;46.396;48.102;2023-03-24T08:09:23;20.69;31.03
75489;HTU21D;64069;46.396;48.102;2023-03-24T08:11:50;20.63;31.41
75489;HTU21D;64069;46.396;48.102;2023-03-24T08:14:16;20.64;31.16
75489;HTU21D;64069;46.396;48.102;2023-03-24T08:16:41;20.95;30.96
75489;HTU21D;64069;46.396;48.102;2023-03-24T08:19:10;21.27;30.41
75489;HTU21D;64069;46.396;48.102;2023-03-24T08:21:36;21.37;29.47
75489;HTU21D;64069;46.396;48.102;2023-03-24T08:24:02;21.61;28.61
75489;HTU21D;64069;46.396;48.102;2023-03-24T08:26:28;21.77;28.33
75489;HTU21D;64069;46.396;48.102;2023-03-24T08:28:55;22.03;27.95
75489;HTU21D;64069;46.396;48.102;2023-03-24T08:31:21;22.31;27.78
75489;HTU21D;64069;46.396;48.102;2023-03-24T08:33:47;22.49;27.16
75489;HTU21D;64069;46.396;48.102;2023-03-24T08:36:13;22.38;26.65
75489;HTU21D;64069;46.396;48.102;2023-03-24T08:38:39;22.31;26.27
75489;HTU21D;64069;46.396;48.102;2023-03-24T08:41:06;22.49;26.45
75489;HTU21D;64069;46.396;48.102;2023-03-24T08:43:34;22.75;26.13
75489;HTU21D;64069;46.396;48.102;2023-03-24T08:46:00;22.63;25.94
75489;HTU21D;64069;46.396;48.102;2023-03-24T08:48:28;22.32;25.58
75489;HTU21D;64069;46.396;48.102;2023-03-24T08:50:55;22.05;26.29
75489;HTU21D;64069;46.396;48.102;2023-03-24T08:53:21;21.90;26.27
75489;HTU21D;64069;46.396;48.102;2023-03-24T08:55:47;21.84;26.20
75489;HTU21D;64069;46.396;48.102;2023-03-24T08:58:18;21.79;25.91
75489;HTU21D;64069;46.396;48.102;2023-03-24T09:00:45;21.68;25.71
75489;HTU21D;64069;46.396;48.102;2023-03-24T09:03:14;21.62;25.38
75489;HTU21D;64069;46.396;48.102;2023-03-24T09:05:43;21.88;25.43
75489;HTU21D;64069;46.396;48.102;2023-03-24T09:08:10;22.23;25.12
75489;HTU21D;64069;46.396;48.102;2023-03-24T09:10:38;22.60;24.77
75489;HTU21D;64069;46.396;48.102;2023-03-24T09:13:04;22.83;24.78
75489;HTU21D;64069;46.396;48.102;2023-03-24T09:15:30;22.95;24.33
75489;HTU21D;64069;46.396;48.102;2023-03-24T09:17:56;22.96;24.53
75489;HTU21D;64069;46.396;48.102;2023-03-24T09:20:22;22.95;23.75
75489;HTU21D;64069;46.396;48.102;2023-03-24T09:22:48;22.99;23.72
75489;HTU21D;64069;46.396;48.102;2023-03-24T09:25:18;23.02;23.43
75489;HTU21D;64069;46.396;48.102;2023-03-24T09:27:45;23.08;23.47
75489;HTU21D;64069;46.396;48.102;2023-03-24T09:30:13;23.24;23.57
75489;HTU21D;64069;46.396;48.102;2023-03-24T09:32:40;23.30;23.51
75489;HTU21D;64069;46.396;48.102;2023-03-24T09:35:06;23.34;23.49
75489;HTU21D;64069;46.396;48.102;2023-03-24T09:37:34;23.38;23.41
75489;HTU21D;64069;46.396;48.102;2023-03-24T09:40:01;23.28;23.56
75489;HTU21D;64069;46.396;48.102;2023-03-24T09:42:36;23.02;23.67
75489;HTU21D;64069;46.396;48.102;2023-03-24T09:45:16;22.72;24.07
75489;HTU21D;64069;46.396;48.102;2023-03-24T09:47:51;22.46;24.34
75489;HTU21D;64069;46.396;48.102;2023-03-24T09:50:24;22.24;24.74
75489;HTU21D;64069;46.396;48.102;2023-03-24T09:52:58;22.09;24.85
75489;HTU21D;64069;46.396;48.102;2023-03-24T09:55:27;21.95;24.66
75489;HTU21D;64069;46.396;48.102;2023-03-24T09:57:58;21.87;24.36
75489;HTU21D;64069;46.396;48.102;2023-03-24T10:00:28;21.95;24.20
75489;HTU21D;64069;46.396;48.102;2023-03-24T10:12:06;22.32;23.05
75489;HTU21D;64069;46.396;48.102;2023-03-24T10:14:42;22.35;22.92
75489;HTU21D;64069;46.396;48.102;2023-03-24T10:20:15;22.36;23.35
75489;HTU21D;64069;46.396;48.102;2023-03-24T10:28:26;22.38;22.08
75489;HTU21D;64069;46.396;48.102;2023-03-24T10:31:00;22.23;21.91
75489;HTU21D;64069;46.396;48.102;2023-03-24T10:33:28;22.27;22.18
75489;HTU21D;64069;46.396;48.102;2023-03-24T10:36:00;22.38;21.92
75489;HTU21D;64069;46.396;48.102;2023-03-24T10:38:28;22.55;21.97
75489;HTU21D;64069;46.396;48.102;2023-03-24T10:40:54;22.69;21.81
75489;HTU21D;64069;46.396;48.102;2023-03-24T10:43:21;22.78;21.34
75489;HTU21D;64069;46.396;48.102;2023-03-24T10:45:52;22.73;20.99
75489;HTU21D;64069;46.396;48.102;2023-03-24T10:51:33;22.91;21.16
75489;HTU21D;64069;46.396;48.102;2023-03-24T10:54:15;22.98;21.03
75489;HTU21D;64069;46.396;48.102;2023-03-24T10:56:49;22.97;20.70
75489;HTU21D;64069;46.396;48.102;2023-03-24T11:04:40;23.35;20.98
75489;HTU21D;64069;46.396;48.102;2023-03-24T11:07:17;23.32;21.02
75489;HTU21D;64069;46.396;48.102;2023-03-24T11:10:05;23.29;21.37
75489;HTU21D;64069;46.396;48.102;2023-03-24T11:12:39;23.30;21.46
75489;HTU21D;64069;46.396;48.102;2023-03-24T11:15:20;23.22;21.38
75489;HTU21D;64069;46.396;48.102;2023-03-24T11:17:56;23.15;21.73
75489;HTU21D;64069;46.396;48.102;2023-03-24T11:25:32;22.77;22.08
75489;HTU21D;64069;46.396;48.102;2023-03-24T11:27:59;22.79;21.95
75489;HTU21D;64069;46.396;48.102;2023-03-24T11:30:32;22.82;22.09
75489;HTU21D;64069;46.396;48.102;2023-03-24T11:32:59;22.85;22.11
75489;HTU21D;64069;46.396;48.102;2023-03-24T11:35:25;22.85;22.17
75489;HTU21D;64069;46.396;48.102;2023-03-24T11:37:52;22.78;22.20
75489;HTU21D;64069;46.396;48.102;2023-03-24T11:40:21;22.68;22.05
75489;HTU21D;64069;46.396;48.102;2023-03-24T11:42:57;22.57;22.05
75489;HTU21D;64069;46.396;48.102;2023-03-24T11:48:01;22.50;22.29
75489;HTU21D;64069;46.396;48.102;2023-03-24T11:50:32;22.49;22.33
75489;HTU21D;64069;46.396;48.102;2023-03-24T11:53:06;22.52;22.60
75489;HTU21D;64069;46.396;48.102;2023-03-24T11:55:51;22.54;22.08
75489;HTU21D;64069;46.396;48.102;2023-03-24T12:01:36;22.39;22.21
75489;HTU21D;64069;46.396;48.102;2023-03-24T12:09:23;22.32;22.00
75489;HTU21D;64069;46.396;48.102;2023-03-24T12:12:04;22.29;22.26
75489;HTU21D;64069;46.396;48.102;2023-03-24T12:20:32;22.14;21.96
75489;HTU21D;64069;46.396;48.102;2023-03-24T12:26:07;22.01;21.81
75489;HTU21D;64069;46.396;48.102;2023-03-24T12:28:38;21.95;22.09
75489;HTU21D;64069;46.396;48.102;2023-03-24T12:31:31;21.91;22.11
75489;HTU21D;64069;46.396;48.102;2023-03-24T12:34:21;21.90;22.06
75489;HTU21D;64069;46.396;48.102;2023-03-24T12:37:12;21.88;22.02
75489;HTU21D;64069;46.396;48.102;2023-03-24T12:40:18;21.77;21.98
75489;HTU21D;64069;46.396;48.102;2023-03-24T12:43:18;21.65;21.91
75489;HTU21D;64069;46.396;48.102;2023-03-24T12:45:43;21.59;22.20
75489;HTU21D;64069;46.396;48.102;2023-03-24T12:51:21;21.43;22.08
75489;HTU21D;64069;46.396;48.102;2023-03-24T12:54:00;21.37;22.03
75489;HTU21D;64069;46.396;48.102;2023-03-24T12:56:44;21.31;22.08
75489;HTU21D;64069;46.396;48.102;2023-03-24T12:59:17;21.27;22.96
75489;HTU21D;64069;46.396;48.102;2023-03-24T13:01:49;21.20;22.41
75489;HTU21D;64069;46.396;48.102;2023-03-24T13:04:26;21.19;23.13
75489;HTU21D;64069;46.396;48.102;2023-03-24T13:07:10;21.14;22.89
75489;HTU21D;64069;46.396;48.102;2023-03-24T13:09:59;21.09;22.62
75489;HTU21D;64069;46.396;48.102;2023-03-24T13:18:09;20.89;22.66
75489;HTU21D;64069;46.396;48.102;2023-03-24T13:29:25;20.61;22.81
75489;HTU21D;64069;46.396;48.102;2023-03-24T13:31:49;20.59;23.11
75489;HTU21D;64069;46.396;48.102;2023-03-24T13:34:28;20.55;23.18
75489;HTU21D;64069;46.396;48.102;2023-03-24T13:37:02;20.50;23.37
75489;HTU21D;64069;46.396;48.102;2023-03-24T13:39:30;20.46;23.45
75489;HTU21D;64069;46.396;48.102;2023-03-24T13:41:58;20.45;23.41
75489;HTU21D;64069;46.396;48.102;2023-03-24T13:44:45;20.39;23.24
75489;HTU21D;64069;46.396;48.102;2023-03-24T13:47:15;20.32;23.43
75489;HTU21D;64069;46.396;48.102;2023-03-24T13:49:51;20.27;23.58
75489;HTU21D;64069;46.396;48.102;2023-03-24T13:54:58;20.13;24.13
75489;HTU21D;64069;46.396;48.102;2023-03-24T13:57:25;20.04;24.33
75489;HTU21D;64069;46.396;48.102;2023-03-24T14:02:46;19.81;24.91
75489;HTU21D;64069;46.396;48.102;2023-03-24T14:08:40;19.58;25.42
75489;HTU21D;64069;46.396;48.102;2023-03-24T14:14:20;19.32;25.91
75489;HTU21D;64069;46.396;48.102;2023-03-24T14:19:44;19.02;26.52
75489;HTU21D;64069;46.396;48.102;2023-03-24T14:22:34;18.91;26.59
75489;HTU21D;64069;46.396;48.102;2023-03-24T14:25:20;18.72;26.78
75489;HTU21D;64069;46.396;48.102;2023-03-24T14:27:49;18.54;27.10
75489;HTU21D;64069;46.396;48.102;2023-03-24T14:32:55;18.17;27.84
75489;HTU21D;64069;46.396;48.102;2023-03-24T14:35:43;18.00;28.16
75489;HTU21D;64069;46.396;48.102;2023-03-24T14:40:44;17.73;28.67
75489;HTU21D;64069;46.396;48.102;2023-03-24T14:43:21;17.56;28.87
75489;HTU21D;64069;46.396;48.102;2023-03-24T14:45:59;17.45;29.15
75489;HTU21D;64069;46.396;48.102;2023-03-24T14:49:05;17.28;29.61
75489;HTU21D;64069;46.396;48.102;2023-03-24T14:51:51;17.05;29.83
75489;HTU21D;64069;46.396;48.102;2023-03-24T14:56:50;17.01;29.54
75489;HTU21D;64069;46.396;48.102;2023-03-24T15:02:35;16.94;29.41
75489;HTU21D;64069;46.396;48.102;2023-03-24T15:05:14;16.87;29.51
75489;HTU21D;64069;46.396;48.102;2023-03-24T15:07:44;16.79;29.66
75489;HTU21D;64069;46.396;48.102;2023-03-24T15:10:15;16.72;29.80
75489;HTU21D;64069;46.396;48.102;2023-03-24T15:12:48;16.62;29.96
75489;HTU21D;64069;46.396;48.102;2023-03-24T15:15:17;16.49;30.17
75489;HTU21D;64069;46.396;48.102;2023-03-24T15:17:48;16.36;30.42
75489;HTU21D;64069;46.396;48.102;2023-03-24T15:20:23;16.17;30.74
75489;HTU21D;64069;46.396;48.102;2023-03-24T15:22:51;16.03;30.96
75489;HTU21D;64069;46.396;48.102;2023-03-24T15:25:28;15.88;31.25
75489;HTU21D;64069;46.396;48.102;2023-03-24T15:27:55;15.78;31.36
75489;HTU21D;64069;46.396;48.102;2023-03-24T15:30:22;15.74;31.45
75489;HTU21D;64069;46.396;48.102;2023-03-24T15:32:49;15.68;31.56
75489;HTU21D;64069;46.396;48.102;2023-03-24T15:35:20;15.62;31.73
75489;HTU21D;64069;46.396;48.102;2023-03-24T15:37:54;15.54;31.86
75489;HTU21D;64069;46.396;48.102;2023-03-24T15:43:04;15.33;32.42
75489;HTU21D;64069;46.396;48.102;2023-03-24T15:45:35;15.26;32.64
75489;HTU21D;64069;46.396;48.102;2023-03-24T15:48:07;15.23;32.86
75489;HTU21D;64069;46.396;48.102;2023-03-24T15:50:54;15.16;33.14
75489;HTU21D;64069;46.396;48.102;2023-03-24T15:56:13;15.06;33.68
75489;HTU21D;64069;46.396;48.102;2023-03-24T16:01:27;14.89;34.30
75489;HTU21D;64069;46.396;48.102;2023-03-24T16:04:20;14.79;34.89
75489;HTU21D;64069;46.396;48.102;2023-03-24T16:06:52;14.72;34.53
75489;HTU21D;64069;46.396;48.102;2023-03-24T16:09:20;14.63;35.06
75489;HTU21D;64069;46.396;48.102;2023-03-24T16:11:47;14.53;35.67
75489;HTU21D;64069;46.396;48.102;2023-03-24T16:14:22;14.41;36.31
75489;HTU21D;64069;46.396;48.102;2023-03-24T16:16:51;14.29;36.50
75489;HTU21D;64069;46.396;48.102;2023-03-24T16:19:17;14.17;36.92
75489;HTU21D;64069;46.396;48.102;2023-03-24T16:21:43;14.06;37.25
75489;HTU21D;64069;46.396;48.102;2023-03-24T16:24:13;13.99;37.57
75489;HTU21D;64069;46.396;48.102;2023-03-24T16:26:39;13.91;37.88
75489;HTU21D;64069;46.396;48.102;2023-03-24T16:29:17;13.79;38.43
75489;HTU21D;64069;46.396;48.102;2023-03-24T16:31:47;13.74;38.68
75489;HTU21D;64069;46.396;48.102;2023-03-24T16:34:18;13.71;39.03
75489;HTU21D;64069;46.396;48.102;2023-03-24T16:36:46;13.71;39.46
75489;HTU21D;64069;46.396;48.102;2023-03-24T16:39:24;13.70;39.72
75489;HTU21D;64069;46.396;48.102;2023-03-24T16:41:50;13.66;40.06
75489;HTU21D;64069;46.396;48.102;2023-03-24T16:44:17;13.64;40.30
75489;HTU21D;64069;46.396;48.102;2023-03-24T16:46:49;13.60;40.41
75489;HTU21D;64069;46.396;48.102;2023-03-24T16:49:16;13.55;40.68
75489;HTU21D;64069;46.396;48.102;2023-03-24T16:51:43;13.53;40.79
75489;HTU21D;64069;46.396;48.102;2023-03-24T16:54:10;13.48;40.84
75489;HTU21D;64069;46.396;48.102;2023-03-24T16:56:37;13.47;40.86
75489;HTU21D;64069;46.396;48.102;2023-03-24T16:59:04;13.38;40.96
75489;HTU21D;64069;46.396;48.102;2023-03-24T17:01:37;13.34;41.10
75489;HTU21D;64069;46.396;48.102;2023-03-24T17:04:18;13.32;41.02
75489;HTU21D;64069;46.396;48.102;2023-03-24T17:06:46;13.33;40.68
75489;HTU21D;64069;46.396;48.102;2023-03-24T17:09:15;13.34;40.37
75489;HTU21D;64069;46.396;48.102;2023-03-24T17:11:44;13.35;40.05
75489;HTU21D;64069;46.396;48.102;2023-03-24T17:14:10;13.34;39.82
75489;HTU21D;64069;46.396;48.102;2023-03-24T17:16:39;13.31;39.65
75489;HTU21D;64069;46.396;48.102;2023-03-24T17:19:13;13.23;39.60
75489;HTU21D;64069;46.396;48.102;2023-03-24T17:21:43;13.14;39.61
75489;HTU21D;64069;46.396;48.102;2023-03-24T17:24:10;13.04;39.68
75489;HTU21D;64069;46.396;48.102;2023-03-24T17:26:39;12.99;39.72
75489;HTU21D;64069;46.396;48.102;2023-03-24T17:29:05;12.96;39.70
75489;HTU21D;64069;46.396;48.102;2023-03-24T17:31:32;12.94;39.68
75489;HTU21D;64069;46.396;48.102;2023-03-24T17:33:58;12.91;39.71
75489;HTU21D;64069;46.396;48.102;2023-03-24T17:36:24;12.89;39.79
75489;HTU21D;64069;46.396;48.102;2023-03-24T17:38:54;12.87;39.84
75489;HTU21D;64069;46.396;48.102;2023-03-24T17:41:20;12.81;39.92
75489;HTU21D;64069;46.396;48.102;2023-03-24T17:43:46;12.74;40.03
75489;HTU21D;64069;46.396;48.102;2023-03-24T17:46:13;12.60;40.28
75489;HTU21D;64069;46.396;48.102;2023-03-24T17:48:39;12.45;40.49
75489;HTU21D;64069;46.396;48.102;2023-03-24T17:51:11;12.28;40.69
75489;HTU21D;64069;46.396;48.102;2023-03-24T17:53:37;12.16;40.88
75489;HTU21D;64069;46.396;48.102;2023-03-24T17:56:03;12.05;41.09
75489;HTU21D;64069;46.396;48.102;2023-03-24T17:58:34;11.97;41.22
75489;HTU21D;64069;46.396;48.102;2023-03-24T18:01:02;11.87;41.50
75489;HTU21D;64069;46.396;48.102;2023-03-24T18:03:35;11.83;41.92
75489;HTU21D;64069;46.396;48.102;2023-03-24T18:06:07;11.78;42.59
75489;HTU21D;64069;46.396;48.102;2023-03-24T18:08:34;11.74;42.91
75489;HTU21D;64069;46.396;48.102;2023-03-24T18:11:12;11.64;44.08
75489;HTU21D;64069;46.396;48.102;2023-03-24T18:13:42;11.57;44.23